Page 1 of 2 12 LastLast
Results 1 to 10 of 18

Thread: North 40 Showers

  1. #1

    North 40 Showers

    KOSH 061453Z 19003KT 10SM CLR M20/M23 A3058 RMK AO2 SLP393 T12001228 53008

    For some reason during weather like this I can't stop thinking about the shower houses at the North 40. I suppose that it will warm up before I get there in July.
    Stay warm everyone.

  2. #2
    rwanttaja's Avatar
    Join Date
    Jul 2011
    Location
    Seattle
    Posts
    1,938
    Quote Originally Posted by John Telfeyan View Post
    KOSH 061453Z 19003KT 10SM CLR M20/M23 A3058 RMK AO2 SLP393 T12001228 53008

    For some reason during weather like this I can't stop thinking about the shower houses at the North 40. I suppose that it will warm up before I get there in July.
    Stay warm everyone.
    At least they've got the toilet seats stacked up and stored in the ice houses! :-)

    Ron Wanttaja

  3. #3

    Join Date
    Aug 2011
    Location
    Marietta, GA
    Posts
    642
    Quote Originally Posted by John Telfeyan View Post
    KOSH 061453Z 19003KT 10SM CLR M20/M23 A3058 RMK AO2 SLP393 T12001228 53008

    For some reason during weather like this I can't stop thinking about the shower houses at the North 40. I suppose that it will warm up before I get there in July.
    Stay warm everyone.
    There's no waiting in line at this time of year...

  4. #4

    Join Date
    Oct 2011
    Location
    WA
    Posts
    853
    Can you decode that weather report.
    I get weather from the news.

  5. #5
    rwanttaja's Avatar
    Join Date
    Jul 2011
    Location
    Seattle
    Posts
    1,938
    Quote Originally Posted by Bill Berson View Post
    Can you decode that weather report.
    Here you go... it's a much more modern format than the one Kyle posted.

    75798372 48544952535190 49574848517584 49488377 677682 77504847775051 6551485356 827775 657950 837680515751 844950484849505056 5351484856

    Ron "Anyone read ASCII?" Wanttaja

  6. #6

    Join Date
    Jun 2012
    Location
    Missouri
    Posts
    44
    I work in homebuilt camping and last year arrived on the Wed prior. Since our trailer wasn't hooked up yet, we used the North Shower House. Was great -- no one else there! In fact, my co-worker and I had a couple really good shower fights -- just point the nozzle skyward toward the other and pull the trigger! Oh to be young again!
    Jerry

  7. #7
    robert l's Avatar
    Join Date
    Mar 2017
    Location
    Heath Springs, S.C.
    Posts
    232
    Quote Originally Posted by rwanttaja View Post
    At least they've got the toilet seats stacked up and stored in the ice houses! :-)

    Ron Wanttaja
    I have a heated toilet seat at home, it sure is nice this time of year !
    Bob

  8. #8
    CarlOrton's Avatar
    Join Date
    Jul 2011
    Location
    DFW Area
    Posts
    556
    Quote Originally Posted by rwanttaja View Post
    Ron "Anyone read ASCII?" Wanttaja
    I had to stop and think for a moment there, Ron; I was thinking those are some weirdo ascii characters you're throwing out there, but then remembered I was trying to translate hex.

    Carl Orton
    Sonex #1170 / Zenith 750 Cruzer
    http://mykitlog.com/corton

  9. #9

    Join Date
    Oct 2011
    Location
    WA
    Posts
    853
    I wasn't joking about decoding that. I can't read it and won't try.
    Duane Cole chastised the FAA decades ago for still using ancient teletype in an age of free electrons.
    And we wonder why the student pilots drop out.

  10. #10
    DaleB's Avatar
    Join Date
    Sep 2015
    Location
    KMLE
    Posts
    416
    Oshkosh, WI airport (KOSH)
    2:53 PM UTC on the 6th
    Winds 190 at 3 knots
    10 mile visibility
    Clear below 12,000 MSL
    -20 C (-4 F), dewpoint -23 C (-9 F)
    Altimeter 30.58
    Measure twice, cut once...
    scratch head, shrug, shim to fit.

Posting Permissions

  • You may not post new threads
  • You may not post replies
  • You may not post attachments
  • You may not edit your posts
  •